CPV1026 SBCT-SBPA
Flight info
| Callsign | CPV1026 |
|---|---|
| Flight time | 0h 55m |
| Altitude | 30000 |
| Route | SAVLU DCT VUKMO |
| Aircraft | B738/M-SDE3/L |
Departure
| Time | 2026-05-06 22:00 |
|---|---|
| Airport | Curitiba-Afonso Pena International Airport (SBCT) |
Arrival
| Time | 2026-05-06 22:55 |
|---|---|
| Airport | Porto Alegre-Salgado Filho International Airport (SBPA) |
| Time | Latitude | Longitude | Altitude | Speed | Heading |
|---|---|---|---|---|---|
| 2026-05-06 21:36 | -25.53714 | -49.17055 | 2980 ft | 0 kts | 223° |
| 2026-05-06 21:49 | -25.53703 | -49.17042 | 2980 ft | 4 kts | 224° |
| 2026-05-06 21:50 | -25.53684 | -49.17022 | 2980 ft | 3 kts | 229° |
| 2026-05-06 21:50 | -25.53675 | -49.17008 | 2980 ft | 2 kts | 254° |
| 2026-05-06 21:50 | -25.53675 | -49.16996 | 2980 ft | 2 kts | 301° |
| 2026-05-06 21:50 | -25.53682 | -49.16986 | 2980 ft | 2 kts | 313° |
| 2026-05-06 21:51 | -25.53684 | -49.16983 | 2980 ft | 0 kts | 314° |
| 2026-05-06 21:52 | -25.53680 | -49.16988 | 2980 ft | 5 kts | 314° |
| 2026-05-06 21:53 | -25.53618 | -49.17033 | 2980 ft | 13 kts | 359° |
| 2026-05-06 21:53 | -25.53533 | -49.17037 | 2980 ft | 13 kts | 325° |
| 2026-05-06 21:53 | -25.53469 | -49.17105 | 2980 ft | 12 kts | 314° |
| 2026-05-06 21:53 | -25.53409 | -49.17172 | 2980 ft | 12 kts | 315° |
| 2026-05-06 21:54 | -25.53351 | -49.17237 | 2980 ft | 12 kts | 314° |
| 2026-05-06 21:54 | -25.53294 | -49.17301 | 2980 ft | 12 kts | 315° |
| 2026-05-06 21:54 | -25.53238 | -49.17363 | 2980 ft | 11 kts | 315° |
| 2026-05-06 21:54 | -25.53184 | -49.17424 | 2987 ft | 11 kts | 315° |
| 2026-05-06 21:55 | -25.53130 | -49.17484 | 2987 ft | 12 kts | 313° |
| 2026-05-06 21:55 | -25.53057 | -49.17567 | 2987 ft | 17 kts | 315° |
| 2026-05-06 21:55 | -25.52984 | -49.17671 | 2987 ft | 17 kts | 282° |
| 2026-05-06 21:55 | -25.52977 | -49.17800 | 2987 ft | 16 kts | 271° |
| 2026-05-06 21:56 | -25.52935 | -49.17909 | 2986 ft | 16 kts | 316° |
| 2026-05-06 21:56 | -25.52852 | -49.17984 | 2987 ft | 15 kts | 338° |
| 2026-05-06 21:56 | -25.52749 | -49.17994 | 2987 ft | 15 kts | 358° |
| 2026-05-06 21:56 | -25.52650 | -49.17998 | 2987 ft | 14 kts | 358° |
| 2026-05-06 21:57 | -25.52554 | -49.18002 | 2988 ft | 13 kts | 358° |
| 2026-05-06 21:57 | -25.52465 | -49.18018 | 2989 ft | 13 kts | 335° |
| 2026-05-06 21:57 | -25.52397 | -49.18080 | 2989 ft | 13 kts | 315° |
| 2026-05-06 21:57 | -25.52337 | -49.18148 | 2989 ft | 12 kts | 313° |
| 2026-05-06 21:58 | -25.52274 | -49.18210 | 2989 ft | 12 kts | 337° |
| 2026-05-06 21:58 | -25.52212 | -49.18251 | 2989 ft | 9 kts | 285° |
| 2026-05-06 21:58 | -25.52218 | -49.18263 | 2988 ft | 2 kts | 225° |
| 2026-05-06 21:58 | -25.52231 | -49.18264 | 2989 ft | 2 kts | 174° |
| 2026-05-06 21:59 | -25.52240 | -49.18255 | 2989 ft | 0 kts | 139° |
| 2026-05-06 21:59 | -25.52269 | -49.18226 | 2989 ft | 30 kts | 136° |
| 2026-05-06 21:59 | -25.52614 | -49.17833 | 2987 ft | 110 kts | 134° |
| 2026-05-06 21:59 | -25.53311 | -49.17038 | 2995 ft | 175 kts | 133° |
| 2026-05-06 22:00 | -25.54246 | -49.16055 | 3622 ft | 189 kts | 134° |
| 2026-05-06 22:00 | -25.55147 | -49.15054 | 4747 ft | 179 kts | 143° |
| 2026-05-06 22:00 | -25.56369 | -49.14744 | 5447 ft | 192 kts | 189° |
| 2026-05-06 22:00 | -25.57771 | -49.15112 | 5756 ft | 223 kts | 193° |
| 2026-05-06 22:01 | -25.59382 | -49.15510 | 5968 ft | 251 kts | 192° |
| 2026-05-06 22:01 | -25.61196 | -49.15935 | 6256 ft | 278 kts | 192° |
| 2026-05-06 22:01 | -25.63127 | -49.16371 | 6988 ft | 286 kts | 192° |
| 2026-05-06 22:01 | -25.65061 | -49.16796 | 7851 ft | 289 kts | 191° |
| 2026-05-06 22:02 | -25.67045 | -49.17223 | 8706 ft | 293 kts | 191° |
| 2026-05-06 22:02 | -25.69089 | -49.17655 | 9572 ft | 297 kts | 191° |
| 2026-05-06 22:02 | -25.71112 | -49.18079 | 10386 ft | 301 kts | 191° |
| 2026-05-06 22:02 | -25.73231 | -49.18520 | 10761 ft | 323 kts | 191° |
| 2026-05-06 22:03 | -25.75530 | -49.18998 | 11001 ft | 346 kts | 191° |
| 2026-05-06 22:03 | -25.77924 | -49.19492 | 11590 ft | 354 kts | 191° |
| 2026-05-06 22:03 | -25.80356 | -49.19994 | 12348 ft | 357 kts | 191° |
| 2026-05-06 22:03 | -25.82810 | -49.20499 | 13100 ft | 359 kts | 192° |
| 2026-05-06 22:04 | -25.85284 | -49.21009 | 13814 ft | 363 kts | 192° |
| 2026-05-06 22:04 | -25.87783 | -49.21524 | 14451 ft | 366 kts | 192° |
| 2026-05-06 22:04 | -25.90293 | -49.22041 | 15127 ft | 368 kts | 192° |
| 2026-05-06 22:04 | -25.92819 | -49.22562 | 15801 ft | 370 kts | 192° |
| 2026-05-06 22:05 | -25.95351 | -49.23084 | 16447 ft | 372 kts | 192° |
| 2026-05-06 22:05 | -25.97904 | -49.23612 | 17128 ft | 374 kts | 192° |
| 2026-05-06 22:05 | -26.00470 | -49.24142 | 17787 ft | 377 kts | 192° |
| 2026-05-06 22:05 | -26.02189 | -49.24497 | 18219 ft | 378 kts | 192° |
| 2026-05-06 22:06 | -26.05631 | -49.25208 | 18982 ft | 382 kts | 192° |
| 2026-05-06 22:06 | -26.08254 | -49.25751 | 19544 ft | 384 kts | 192° |
| 2026-05-06 22:06 | -26.10892 | -49.26298 | 20095 ft | 387 kts | 193° |
| 2026-05-06 22:06 | -26.13508 | -49.27030 | 20633 ft | 388 kts | 199° |
| 2026-05-06 22:07 | -26.15239 | -49.27679 | 21015 ft | 389 kts | 201° |
| 2026-05-06 22:07 | -26.17751 | -49.28728 | 21562 ft | 391 kts | 203° |
| 2026-05-06 22:07 | -26.20292 | -49.29831 | 22102 ft | 393 kts | 203° |
| 2026-05-06 22:07 | -26.22848 | -49.30940 | 22629 ft | 396 kts | 203° |
| 2026-05-06 22:08 | -26.25433 | -49.32046 | 23152 ft | 399 kts | 203° |
| 2026-05-06 22:08 | -26.28039 | -49.33144 | 23663 ft | 401 kts | 203° |
| 2026-05-06 22:08 | -26.30660 | -49.34235 | 24105 ft | 403 kts | 203° |
| 2026-05-06 22:08 | -26.33292 | -49.35320 | 24568 ft | 404 kts | 203° |
| 2026-05-06 22:09 | -26.35941 | -49.36407 | 25032 ft | 405 kts | 203° |
| 2026-05-06 22:09 | -26.38586 | -49.37490 | 25482 ft | 406 kts | 203° |
| 2026-05-06 22:09 | -26.41208 | -49.38564 | 25924 ft | 407 kts | 203° |
| 2026-05-06 22:09 | -26.43863 | -49.39650 | 26469 ft | 405 kts | 203° |
| 2026-05-06 22:10 | -26.46491 | -49.40725 | 27125 ft | 400 kts | 204° |
| 2026-05-06 22:10 | -26.49082 | -49.41784 | 27799 ft | 395 kts | 204° |
| 2026-05-06 22:10 | -26.51648 | -49.42835 | 28432 ft | 391 kts | 204° |
| 2026-05-06 22:10 | -26.54197 | -49.43880 | 29018 ft | 389 kts | 204° |
| 2026-05-06 22:11 | -26.56728 | -49.44919 | 29595 ft | 387 kts | 204° |
| 2026-05-06 22:11 | -26.59248 | -49.45954 | 30115 ft | 386 kts | 204° |
| 2026-05-06 22:11 | -26.64325 | -49.48043 | 30141 ft | 386 kts | 204° |
| 2026-05-06 22:12 | -26.69354 | -49.50117 | 30151 ft | 385 kts | 204° |
| 2026-05-06 22:12 | -26.74399 | -49.52193 | 30140 ft | 387 kts | 204° |
| 2026-05-06 22:13 | -26.79430 | -49.54264 | 30135 ft | 388 kts | 204° |
| 2026-05-06 22:13 | -26.84498 | -49.56354 | 30132 ft | 388 kts | 204° |
| 2026-05-06 22:14 | -26.89597 | -49.58458 | 30137 ft | 387 kts | 204° |
| 2026-05-06 22:14 | -26.94650 | -49.60545 | 30126 ft | 386 kts | 204° |
| 2026-05-06 22:15 | -26.99674 | -49.62622 | 30121 ft | 385 kts | 204° |
| 2026-05-06 22:15 | -27.04672 | -49.64693 | 30113 ft | 385 kts | 204° |
| 2026-05-06 22:16 | -27.09691 | -49.66774 | 30120 ft | 384 kts | 205° |
| 2026-05-06 22:16 | -27.14715 | -49.68859 | 30123 ft | 385 kts | 205° |
| 2026-05-06 22:17 | -27.19750 | -49.70956 | 30137 ft | 385 kts | 205° |
| 2026-05-06 22:17 | -27.24791 | -49.73049 | 30127 ft | 387 kts | 205° |
| 2026-05-06 22:18 | -27.29812 | -49.75134 | 30124 ft | 387 kts | 205° |
| 2026-05-06 22:18 | -27.34877 | -49.77244 | 30128 ft | 388 kts | 205° |
| 2026-05-06 22:19 | -27.39946 | -49.79353 | 30124 ft | 388 kts | 205° |
| 2026-05-06 22:19 | -27.45010 | -49.81467 | 30131 ft | 388 kts | 205° |
| 2026-05-06 22:20 | -27.50081 | -49.83587 | 30140 ft | 389 kts | 205° |
| 2026-05-06 22:20 | -27.55151 | -49.85707 | 30141 ft | 389 kts | 205° |
| 2026-05-06 22:21 | -27.60224 | -49.87830 | 30154 ft | 388 kts | 205° |
| 2026-05-06 22:21 | -27.65266 | -49.89942 | 30151 ft | 389 kts | 205° |
| 2026-05-06 22:22 | -27.70371 | -49.92083 | 30155 ft | 389 kts | 205° |
| 2026-05-06 22:22 | -27.75443 | -49.94213 | 30163 ft | 389 kts | 205° |
| 2026-05-06 22:23 | -27.80486 | -49.96331 | 30157 ft | 389 kts | 205° |
| 2026-05-06 22:23 | -27.85564 | -49.98466 | 30167 ft | 389 kts | 205° |
| 2026-05-06 22:24 | -27.90643 | -50.00605 | 30170 ft | 389 kts | 205° |
| 2026-05-06 22:24 | -27.95691 | -50.02733 | 30169 ft | 388 kts | 205° |
| 2026-05-06 22:25 | -28.00760 | -50.04871 | 30171 ft | 388 kts | 205° |
| 2026-05-06 22:25 | -28.05823 | -50.07009 | 30165 ft | 388 kts | 205° |
| 2026-05-06 22:26 | -28.10878 | -50.09146 | 30165 ft | 387 kts | 205° |
| 2026-05-06 22:26 | -28.15925 | -50.11281 | 30161 ft | 387 kts | 205° |
| 2026-05-06 22:27 | -28.20933 | -50.13402 | 30165 ft | 386 kts | 205° |
| 2026-05-06 22:27 | -28.25968 | -50.15537 | 30143 ft | 386 kts | 206° |
| 2026-05-06 22:28 | -28.31003 | -50.17674 | 30164 ft | 386 kts | 206° |
| 2026-05-06 22:28 | -28.36046 | -50.19817 | 30156 ft | 387 kts | 206° |
| 2026-05-06 22:29 | -28.41105 | -50.21970 | 30147 ft | 388 kts | 206° |
| 2026-05-06 22:29 | -28.46140 | -50.24109 | 30155 ft | 389 kts | 206° |
| 2026-05-06 22:30 | -28.51210 | -50.26272 | 30147 ft | 389 kts | 206° |
| 2026-05-06 22:30 | -28.56286 | -50.28439 | 30141 ft | 389 kts | 206° |
| 2026-05-06 22:31 | -28.61352 | -50.30603 | 30146 ft | 389 kts | 206° |
| 2026-05-06 22:31 | -28.66422 | -50.32770 | 30114 ft | 385 kts | 206° |
| 2026-05-06 22:32 | -28.71368 | -50.34883 | 30136 ft | 375 kts | 207° |
| 2026-05-06 22:32 | -28.73671 | -50.36192 | 30108 ft | 367 kts | 221° |
| 2026-05-06 22:32 | -28.75662 | -50.37987 | 30059 ft | 366 kts | 222° |
| 2026-05-06 22:33 | -28.77656 | -50.39738 | 29782 ft | 363 kts | 221° |
| 2026-05-06 22:33 | -28.79665 | -50.41459 | 29348 ft | 360 kts | 221° |
| 2026-05-06 22:33 | -28.81654 | -50.43147 | 28979 ft | 355 kts | 221° |
| 2026-05-06 22:33 | -28.83631 | -50.44826 | 28566 ft | 351 kts | 221° |
| 2026-05-06 22:34 | -28.85583 | -50.46487 | 28164 ft | 349 kts | 221° |
| 2026-05-06 22:34 | -28.87502 | -50.48122 | 27777 ft | 346 kts | 221° |
| 2026-05-06 22:34 | -28.89423 | -50.49762 | 27375 ft | 344 kts | 221° |
| 2026-05-06 22:34 | -28.91338 | -50.51399 | 26989 ft | 342 kts | 221° |
| 2026-05-06 22:35 | -28.93239 | -50.53026 | 26586 ft | 340 kts | 221° |
| 2026-05-06 22:35 | -28.95133 | -50.54647 | 26206 ft | 339 kts | 221° |
| 2026-05-06 22:35 | -28.97016 | -50.56259 | 25821 ft | 337 kts | 221° |
| 2026-05-06 22:35 | -28.98888 | -50.57863 | 25440 ft | 336 kts | 221° |
| 2026-05-06 22:36 | -29.00757 | -50.59465 | 25049 ft | 336 kts | 221° |
| 2026-05-06 22:36 | -29.02620 | -50.61063 | 24656 ft | 335 kts | 221° |
| 2026-05-06 22:36 | -29.04483 | -50.62662 | 24266 ft | 334 kts | 221° |
| 2026-05-06 22:36 | -29.06320 | -50.64239 | 23879 ft | 335 kts | 221° |
| 2026-05-06 22:37 | -29.08180 | -50.65836 | 23457 ft | 334 kts | 221° |
| 2026-05-06 22:37 | -29.10035 | -50.67429 | 23045 ft | 332 kts | 221° |
| 2026-05-06 22:37 | -29.11884 | -50.69017 | 22646 ft | 331 kts | 221° |
| 2026-05-06 22:37 | -29.13612 | -50.70732 | 22168 ft | 328 kts | 229° |
| 2026-05-06 22:38 | -29.15146 | -50.72664 | 21769 ft | 326 kts | 232° |
| 2026-05-06 22:38 | -29.16609 | -50.74636 | 21378 ft | 324 kts | 233° |
| 2026-05-06 22:38 | -29.18058 | -50.76601 | 21002 ft | 323 kts | 233° |
| 2026-05-06 22:38 | -29.19512 | -50.78553 | 20634 ft | 321 kts | 232° |
| 2026-05-06 22:39 | -29.20970 | -50.80489 | 20278 ft | 320 kts | 232° |
| 2026-05-06 22:39 | -29.22428 | -50.82409 | 19919 ft | 319 kts | 232° |
| 2026-05-06 22:39 | -29.23886 | -50.84319 | 19561 ft | 318 kts | 232° |
| 2026-05-06 22:39 | -29.25341 | -50.86221 | 19197 ft | 317 kts | 231° |
| 2026-05-06 22:40 | -29.26795 | -50.88118 | 18835 ft | 317 kts | 232° |
| 2026-05-06 22:40 | -29.28247 | -50.90013 | 18479 ft | 316 kts | 232° |
| 2026-05-06 22:40 | -29.29698 | -50.91905 | 18058 ft | 316 kts | 232° |
| 2026-05-06 22:40 | -29.31144 | -50.93792 | 17682 ft | 314 kts | 232° |
| 2026-05-06 22:41 | -29.33998 | -50.97519 | 16962 ft | 312 kts | 231° |
| 2026-05-06 22:41 | -29.35426 | -50.99384 | 16607 ft | 310 kts | 231° |
| 2026-05-06 22:41 | -29.36845 | -51.01239 | 16261 ft | 309 kts | 231° |
| 2026-05-06 22:42 | -29.38261 | -51.03089 | 15852 ft | 310 kts | 231° |
| 2026-05-06 22:42 | -29.39698 | -51.04955 | 15383 ft | 314 kts | 231° |
| 2026-05-06 22:42 | -29.41152 | -51.06841 | 14948 ft | 317 kts | 231° |
| 2026-05-06 22:42 | -29.42625 | -51.08750 | 14470 ft | 320 kts | 231° |
| 2026-05-06 22:43 | -29.44107 | -51.10672 | 13991 ft | 323 kts | 231° |
| 2026-05-06 22:43 | -29.45604 | -51.12614 | 13478 ft | 324 kts | 231° |
| 2026-05-06 22:43 | -29.47081 | -51.14531 | 12976 ft | 318 kts | 231° |
| 2026-05-06 22:43 | -29.48527 | -51.16409 | 12520 ft | 318 kts | 231° |
| 2026-05-06 22:44 | -29.49985 | -51.18305 | 12035 ft | 314 kts | 231° |
| 2026-05-06 22:44 | -29.51416 | -51.20165 | 11569 ft | 307 kts | 231° |
| 2026-05-06 22:44 | -29.52816 | -51.21988 | 11132 ft | 303 kts | 231° |
| 2026-05-06 22:44 | -29.54216 | -51.23813 | 10695 ft | 305 kts | 231° |
| 2026-05-06 22:45 | -29.55624 | -51.25649 | 10245 ft | 307 kts | 231° |
| 2026-05-06 22:45 | -29.57042 | -51.27498 | 9904 ft | 305 kts | 231° |
| 2026-05-06 22:45 | -29.58407 | -51.29276 | 9921 ft | 290 kts | 231° |
| 2026-05-06 22:45 | -29.59719 | -51.30984 | 9828 ft | 279 kts | 231° |
| 2026-05-06 22:46 | -29.60991 | -51.32644 | 9625 ft | 274 kts | 232° |
| 2026-05-06 22:46 | -29.62287 | -51.34245 | 9309 ft | 275 kts | 223° |
| 2026-05-06 22:46 | -29.64008 | -51.35224 | 8983 ft | 280 kts | 199° |
| 2026-05-06 22:46 | -29.65848 | -51.35847 | 8615 ft | 279 kts | 201° |
| 2026-05-06 22:47 | -29.67708 | -51.36530 | 8055 ft | 281 kts | 201° |
| 2026-05-06 22:47 | -29.69570 | -51.37224 | 7516 ft | 281 kts | 201° |
| 2026-05-06 22:47 | -29.71436 | -51.37917 | 7002 ft | 282 kts | 200° |
| 2026-05-06 22:47 | -29.73347 | -51.38423 | 6712 ft | 277 kts | 192° |
| 2026-05-06 22:48 | -29.75249 | -51.38740 | 6459 ft | 276 kts | 191° |
| 2026-05-06 22:48 | -29.77138 | -51.39033 | 6211 ft | 273 kts | 191° |
| 2026-05-06 22:48 | -29.79013 | -51.39333 | 5965 ft | 272 kts | 191° |
| 2026-05-06 22:48 | -29.80892 | -51.39645 | 5715 ft | 272 kts | 191° |
| 2026-05-06 22:49 | -29.82768 | -51.39967 | 5458 ft | 272 kts | 191° |
| 2026-05-06 22:49 | -29.84643 | -51.40294 | 5196 ft | 272 kts | 191° |
| 2026-05-06 22:49 | -29.86520 | -51.40625 | 4942 ft | 272 kts | 191° |
| 2026-05-06 22:49 | -29.88366 | -51.40951 | 4681 ft | 272 kts | 191° |
| 2026-05-06 22:50 | -29.90230 | -51.41304 | 4420 ft | 271 kts | 193° |
| 2026-05-06 22:50 | -29.92067 | -51.41786 | 4163 ft | 270 kts | 195° |
| 2026-05-06 22:50 | -29.93903 | -51.42236 | 3903 ft | 269 kts | 192° |
| 2026-05-06 22:50 | -29.95751 | -51.42552 | 3650 ft | 268 kts | 185° |
| 2026-05-06 22:51 | -29.97567 | -51.42209 | 3368 ft | 268 kts | 151° |
| 2026-05-06 22:51 | -29.98844 | -51.40724 | 3142 ft | 262 kts | 113° |
| 2026-05-06 22:51 | -29.99143 | -51.39371 | 2993 ft | 257 kts | 92° |
| 2026-05-06 22:51 | -29.99233 | -51.37336 | 2769 ft | 253 kts | 91° |
| 2026-05-06 22:52 | -29.99204 | -51.35359 | 2643 ft | 243 kts | 85° |
| 2026-05-06 22:52 | -29.99159 | -51.33450 | 2417 ft | 234 kts | 88° |
| 2026-05-06 22:52 | -29.99184 | -51.31594 | 2126 ft | 227 kts | 90° |
| 2026-05-06 22:52 | -29.99221 | -51.29801 | 1835 ft | 220 kts | 90° |
| 2026-05-06 22:53 | -29.99254 | -51.28067 | 1553 ft | 213 kts | 90° |
| 2026-05-06 22:53 | -29.99284 | -51.26400 | 1290 ft | 201 kts | 90° |
| 2026-05-06 22:53 | -29.99314 | -51.24834 | 1030 ft | 191 kts | 90° |
| 2026-05-06 22:53 | -29.99342 | -51.23309 | 835 ft | 189 kts | 91° |
| 2026-05-06 22:54 | -29.99370 | -51.21857 | 618 ft | 171 kts | 91° |
| 2026-05-06 22:54 | -29.99395 | -51.20568 | 407 ft | 151 kts | 91° |
| 2026-05-06 22:54 | -29.99407 | -51.19418 | 244 ft | 142 kts | 90° |
| 2026-05-06 22:54 | -29.99425 | -51.18317 | 56 ft | 137 kts | 90° |
| 2026-05-06 22:55 | -29.99443 | -51.17298 | 26 ft | 110 kts | 92° |
| 2026-05-06 22:55 | -29.99452 | -51.16867 | 28 ft | 11 kts | 94° |
| 2026-05-06 22:55 | -29.99461 | -51.16781 | 30 ft | 11 kts | 77° |
| 2026-05-06 22:55 | -29.99422 | -51.16740 | 31 ft | 5 kts | 7° |
| 2026-05-06 22:56 | -29.99387 | -51.16740 | 31 ft | 5 kts | 359° |
| 2026-05-06 22:56 | -29.99352 | -51.16740 | 31 ft | 5 kts | 359° |
| 2026-05-06 22:56 | -29.99311 | -51.16745 | 32 ft | 8 kts | 339° |
| 2026-05-06 22:56 | -29.99278 | -51.16819 | 31 ft | 15 kts | 273° |
| 2026-05-06 22:57 | -29.99277 | -51.16963 | 30 ft | 22 kts | 274° |
| 2026-05-06 22:57 | -29.99270 | -51.17158 | 28 ft | 26 kts | 271° |
| 2026-05-06 22:57 | -29.99267 | -51.17349 | 27 ft | 19 kts | 268° |
| 2026-05-06 22:57 | -29.99264 | -51.17499 | 26 ft | 18 kts | 272° |
| 2026-05-06 22:58 | -29.99262 | -51.17603 | 27 ft | 11 kts | 271° |
| 2026-05-06 22:58 | -29.99241 | -51.17684 | 28 ft | 11 kts | 317° |
| 2026-05-06 22:58 | -29.99169 | -51.17697 | 28 ft | 11 kts | 4° |
| 2026-05-06 22:58 | -29.99097 | -51.17687 | 25 ft | 9 kts | 7° |
| 2026-05-06 22:59 | -29.99082 | -51.17685 | 27 ft | 0 kts | 7° |